52VA weather

Ibm Building 250 Heliport
Manassas, Virginia, United States

Public forecast

Using degrees Fahrenheit for public forecast. Weather courtesy of forecast.io.

Closest aviation weather report (METAR) to Ibm Building 250 Heliport

Closest report is Manassas Regional Airport/Harry P. Davis Field, 2.3 nm (4.3 km) S. Retrieved 2019/11/19 00:56 UTC (30 minutes ago):

KHEF 190056Z 19003KT 10SM -RA OVC060 06/04 A2977 RMK AO2 RAB15 SLP089 P0000 T00560044

Closest aviation forecast (TAF) to Ibm Building 250 Heliport

Closest forecast is Washington Dulles International Airport, 11.3 nm (21.0 km) NNE. Retrieved 2019-11-19 00:48 UTC (38 minutes ago):

TAF KIAD 182344Z 1900/2006 00000KT P6SM -SHRA BKN060 OVC130 FM190400 00000KT 5SM -SHRA BR OVC015 FM190600 00000KT 4SM BR OVC008 FM191300 VRB03KT 5SM BR BKN035 FM191700 29004KT P6SM BKN110